Time;durP1;ratioP1;P1;durP2;ratioP2;P2;SDS_P1;SDS_P2;PMS_P1;PMS_P2;Temp;Humidity;BMP_temperature;BMP_pressure;BME280_temperature;BME280_humidity;BME280_pressure;Samples;Min_cycle;Max_cycle;Signal;HPM_P1;HPM_P2
2023/09/09 00:01:21;;;;;;;24.60;22.02;;;20.10;99.90;;;;;;5078175;28;20621;-58
2023/09/09 00:03:47;;;;;;;26.25;22.88;;;20.10;99.90;;;;;;5079715;28;20036;-58
2023/09/09 00:06:13;;;;;;;24.77;22.13;;;20.10;99.90;;;;;;5078562;28;20052;-57
2023/09/09 00:08:40;;;;;;;26.35;23.55;;;20.10;99.90;;;;;;5079529;28;20047;-58
2023/09/09 00:11:06;;;;;;;26.15;23.33;;;20.10;99.90;;;;;;5077739;28;20518;-57
2023/09/09 00:13:31;;;;;;;26.23;22.67;;;20.00;99.90;;;;;;5077606;28;20104;-58
2023/09/09 00:15:57;;;;;;;25.73;22.63;;;20.00;99.90;;;;;;5079286;28;20052;-57
2023/09/09 00:18:23;;;;;;;28.00;24.05;;;20.00;99.90;;;;;;5077801;28;20037;-57
2023/09/09 00:20:49;;;;;;;28.48;24.67;;;20.00;99.90;;;;;;5079715;28;20037;-58
2023/09/09 00:23:14;;;;;;;31.00;27.20;;;20.00;99.90;;;;;;5078257;28;20045;-57
2023/09/09 00:25:41;;;;;;;27.60;23.88;;;20.10;99.90;;;;;;5079274;28;20109;-59
2023/09/09 00:28:09;;;;;;;27.85;24.35;;;20.10;99.90;;;;;;5078610;28;20056;-57
2023/09/09 00:30:35;;;;;;;28.40;25.27;;;20.00;99.90;;;;;;5078246;28;20051;-58
2023/09/09 00:33:01;;;;;;;29.83;24.88;;;20.00;99.90;;;;;;5079429;28;20045;-57
2023/09/09 00:35:27;;;;;;;29.75;25.65;;;19.90;99.90;;;;;;5077776;28;20051;-58
2023/09/09 00:37:54;;;;;;;30.70;25.95;;;20.00;99.90;;;;;;5079098;28;20040;-58
2023/09/09 00:40:20;;;;;;;31.75;25.73;;;19.90;99.90;;;;;;5077904;28;20055;-58
2023/09/09 00:42:47;;;;;;;28.65;25.55;;;19.90;99.90;;;;;;5079538;28;20136;-58
2023/09/09 00:45:13;;;;;;;31.08;25.73;;;19.90;99.90;;;;;;5078093;28;20040;-57
2023/09/09 00:47:40;;;;;;;28.45;25.40;;;19.90;99.90;;;;;;5078595;28;20045;-58
2023/09/09 00:50:10;;;;;;;28.83;25.23;;;19.90;99.90;;;;;;5078625;28;20053;-57
2023/09/09 00:52:39;;;;;;;27.55;24.55;;;19.80;99.90;;;;;;5077881;28;20056;-57
2023/09/09 00:55:06;;;;;;;28.23;25.17;;;19.80;99.90;;;;;;5096301;28;20039;-57
2023/09/09 00:57:32;;;;;;;32.33;26.27;;;19.80;99.90;;;;;;5118566;28;20092;-58
2023/09/09 01:00:00;;;;;;;28.08;25.08;;;19.70;99.90;;;;;;5119753;28;20107;-58
2023/09/09 01:02:26;;;;;;;29.45;24.65;;;19.70;99.90;;;;;;5119069;28;20076;-57
2023/09/09 01:04:52;;;;;;;26.50;23.63;;;19.80;99.90;;;;;;5118863;28;20036;-57
2023/09/09 01:07:17;;;;;;;28.60;25.35;;;19.70;99.90;;;;;;5119533;28;20032;-57
2023/09/09 01:09:43;;;;;;;27.10;24.17;;;19.70;99.90;;;;;;5118349;28;20036;-57
2023/09/09 01:12:11;;;;;;;25.90;23.13;;;19.70;99.90;;;;;;5119272;28;20048;-58
2023/09/09 01:14:40;;;;;;;25.40;22.48;;;19.70;99.90;;;;;;5118398;28;20047;-57
2023/09/09 01:17:07;;;;;;;25.67;22.85;;;19.70;99.90;;;;;;5119805;28;20040;-57
2023/09/09 01:19:33;;;;;;;26.65;23.05;;;19.70;99.90;;;;;;5118402;28;20087;-57
2023/09/09 01:22:03;;;;;;;24.77;22.08;;;19.60;99.90;;;;;;5118698;28;20097;-58
2023/09/09 01:24:29;;;;;;;24.77;22.00;;;19.70;99.90;;;;;;5120791;28;20117;-57
2023/09/09 01:26:55;;;;;;;23.63;20.60;;;19.60;99.90;;;;;;5122057;28;20100;-58
2023/09/09 01:29:23;;;;;;;24.20;20.63;;;19.60;99.90;;;;;;5123281;28;20062;-57
2023/09/09 01:31:48;;;;;;;23.20;20.67;;;19.60;99.90;;;;;;5122193;28;20107;-58
2023/09/09 01:34:14;;;;;;;23.48;20.55;;;19.60;99.90;;;;;;5123260;27;20082;-58
2023/09/09 01:36:39;;;;;;;22.13;19.70;;;19.60;99.90;;;;;;5122667;28;20051;-57
2023/09/09 01:39:05;;;;;;;22.90;19.70;;;19.60;99.90;;;;;;5122135;28;20065;-58
2023/09/09 01:41:31;;;;;;;22.75;20.23;;;19.60;99.90;;;;;;5122648;28;20130;-58
2023/09/09 01:43:57;;;;;;;22.63;19.70;;;19.50;99.90;;;;;;5121891;28;20075;-58
2023/09/09 01:46:22;;;;;;;22.75;19.83;;;19.50;99.90;;;;;;5122882;28;20047;-58
2023/09/09 01:48:48;;;;;;;21.60;18.83;;;19.50;99.90;;;;;;5121262;28;20377;-57
2023/09/09 01:51:14;;;;;;;22.40;19.30;;;19.50;99.90;;;;;;5122708;28;20040;-58
2023/09/09 01:53:39;;;;;;;22.08;18.88;;;19.50;99.90;;;;;;5122193;28;20039;-58
2023/09/09 01:56:05;;;;;;;23.58;18.27;;;19.50;99.90;;;;;;5104557;28;20415;-57
2023/09/09 01:58:31;;;;;;;21.90;17.58;;;19.40;99.90;;;;;;5102103;28;20044;-57
2023/09/09 02:00:56;;;;;;;20.75;17.42;;;19.40;99.90;;;;;;5101038;28;20109;-57
2023/09/09 02:03:24;;;;;;;21.20;17.88;;;19.40;99.90;;;;;;5102162;28;20047;-58
2023/09/09 02:05:50;;;;;;;20.88;18.48;;;19.40;99.90;;;;;;5100841;28;20095;-57
2023/09/09 02:08:16;;;;;;;20.35;18.15;;;19.30;99.90;;;;;;5102413;28;20099;-58
2023/09/09 02:10:42;;;;;;;20.42;17.98;;;19.30;99.90;;;;;;5101289;28;20059;-57
2023/09/09 02:13:08;;;;;;;20.15;17.65;;;19.30;99.90;;;;;;5100243;28;20043;-57
2023/09/09 02:15:34;;;;;;;21.20;17.50;;;19.40;99.90;;;;;;5101114;28;20046;-58
2023/09/09 02:17:59;;;;;;;20.45;17.45;;;19.30;99.90;;;;;;5099519;28;20051;-57
2023/09/09 02:20:25;;;;;;;20.42;17.20;;;19.30;99.90;;;;;;5101339;28;20135;-57
2023/09/09 02:22:51;;;;;;;20.67;17.27;;;19.30;99.90;;;;;;5100236;28;20064;-58
2023/09/09 02:25:16;;;;;;;21.13;17.63;;;19.30;99.90;;;;;;5101777;28;20159;-58
2023/09/09 02:27:42;;;;;;;21.85;17.52;;;19.20;99.90;;;;;;5100667;28;20517;-58
2023/09/09 02:30:08;;;;;;;20.48;16.98;;;19.20;99.90;;;;;;5101458;28;20048;-57
2023/09/09 02:32:34;;;;;;;19.33;16.60;;;19.20;99.90;;;;;;5101394;28;20154;-57
2023/09/09 02:34:59;;;;;;;22.48;16.35;;;19.20;99.90;;;;;;5100241;28;20131;-58
2023/09/09 02:37:26;;;;;;;19.00;16.85;;;19.20;99.90;;;;;;5100606;28;20032;-57
2023/09/09 02:39:52;;;;;;;23.10;17.10;;;19.10;99.90;;;;;;5100200;28;20044;-58
2023/09/09 02:42:20;;;;;;;20.67;16.83;;;19.10;99.90;;;;;;5101295;28;20054;-57
2023/09/09 02:44:47;;;;;;;20.17;17.10;;;19.10;99.90;;;;;;5100262;28;20500;-58
2023/09/09 02:47:13;;;;;;;19.10;16.98;;;19.10;99.90;;;;;;5101373;28;20044;-58
2023/09/09 02:49:39;;;;;;;19.33;17.00;;;19.10;99.90;;;;;;5100618;28;20074;-58
2023/09/09 02:52:06;;;;;;;19.83;17.45;;;19.10;99.90;;;;;;5099904;28;20044;-58
2023/09/09 02:54:33;;;;;;;20.42;17.08;;;19.10;99.90;;;;;;5105285;28;20110;-57
2023/09/09 02:56:59;;;;;;;20.55;16.70;;;19.00;99.90;;;;;;5120147;28;20039;-59
2023/09/09 02:59:25;;;;;;;21.13;17.83;;;19.10;99.90;;;;;;5121618;28;20051;-57
2023/09/09 03:01:51;;;;;;;20.88;17.13;;;19.10;99.90;;;;;;5120526;28;20092;-58
2023/09/09 03:04:19;;;;;;;19.65;17.45;;;19.10;99.90;;;;;;5121620;28;20036;-57
2023/09/09 03:06:45;;;;;;;20.15;17.17;;;19.10;99.90;;;;;;5120715;28;20044;-57
2023/09/09 03:09:13;;;;;;;21.08;17.95;;;19.10;99.90;;;;;;5118826;28;20091;-57
2023/09/09 03:11:38;;;;;;;22.23;19.05;;;19.10;99.90;;;;;;5119888;28;20051;-57
2023/09/09 03:14:04;;;;;;;21.13;18.15;;;19.10;99.90;;;;;;5119871;28;20431;-58
2023/09/09 03:16:30;;;;;;;23.30;19.77;;;19.00;99.90;;;;;;5121239;28;20103;-57
2023/09/09 03:18:56;;;;;;;21.98;19.08;;;19.00;99.90;;;;;;5119577;28;20043;-58
2023/09/09 03:21:21;;;;;;;22.75;19.27;;;19.00;99.90;;;;;;5120882;28;20458;-58
2023/09/09 03:23:47;;;;;;;23.00;19.30;;;19.00;99.90;;;;;;5120518;28;20043;-58
2023/09/09 03:26:18;;;;;;;23.75;19.17;;;19.00;99.90;;;;;;5120023;28;20126;-58
2023/09/09 03:28:47;;;;;;;23.42;19.10;;;19.00;99.90;;;;;;5120802;28;20031;-57
2023/09/09 03:31:13;;;;;;;23.80;20.13;;;19.00;99.90;;;;;;5119570;28;20054;-58
2023/09/09 03:33:40;;;;;;;23.23;19.65;;;19.10;99.90;;;;;;5119344;28;20048;-58
2023/09/09 03:36:07;;;;;;;23.90;20.35;;;19.10;99.90;;;;;;5119197;27;20414;-57
2023/09/09 03:38:32;;;;;;;22.52;19.63;;;19.10;99.90;;;;;;5120574;28;20483;-58
2023/09/09 03:40:58;;;;;;;24.55;19.77;;;19.10;99.90;;;;;;5120191;28;20062;-57
2023/09/09 03:43:24;;;;;;;23.17;20.60;;;19.10;99.90;;;;;;5119580;28;20624;-58
2023/09/09 03:45:56;;;;;;;22.60;19.23;;;19.10;99.90;;;;;;5120429;28;20084;-57
2023/09/09 03:48:24;;;;;;;24.92;21.35;;;19.10;99.90;;;;;;5119031;28;20040;-58
2023/09/09 03:50:50;;;;;;;29.13;22.65;;;19.10;99.90;;;;;;5121078;28;20478;-57
2023/09/09 03:53:16;;;;;;;24.85;20.50;;;19.10;99.90;;;;;;5119269;28;20059;-58
2023/09/09 03:55:41;;;;;;;25.95;22.08;;;19.10;99.90;;;;;;5106271;28;20068;-58
2023/09/09 03:58:07;;;;;;;23.60;20.50;;;19.10;99.90;;;;;;5099551;28;20040;-58
2023/09/09 04:00:33;;;;;;;25.27;20.65;;;19.10;99.90;;;;;;5099204;28;20387;-58
2023/09/09 04:02:59;;;;;;;24.00;20.85;;;19.10;99.90;;;;;;5099717;28;20068;-58
2023/09/09 04:05:25;;;;;;;25.48;21.23;;;19.00;99.90;;;;;;5098602;28;20074;-57
2023/09/09 04:07:51;;;;;;;25.55;20.92;;;19.00;99.90;;;;;;5100128;28;20051;-57
2023/09/09 04:10:17;;;;;;;24.50;21.80;;;19.00;99.90;;;;;;5098646;28;20330;-57
2023/09/09 04:12:43;;;;;;;27.83;22.15;;;19.00;99.90;;;;;;5099742;28;20058;-57
2023/09/09 04:15:10;;;;;;;25.70;20.75;;;19.00;99.90;;;;;;5099316;28;20104;-57
2023/09/09 04:17:36;;;;;;;24.33;21.10;;;18.90;99.90;;;;;;5098634;28;20040;-57
2023/09/09 04:20:03;;;;;;;27.83;21.92;;;18.90;99.90;;;;;;5099184;28;20120;-57
2023/09/09 04:22:29;;;;;;;28.77;21.60;;;18.90;99.90;;;;;;5098359;28;20074;-58
2023/09/09 04:24:54;;;;;;;28.27;22.02;;;18.90;99.90;;;;;;5099874;28;20040;-58
2023/09/09 04:27:21;;;;;;;26.40;21.50;;;18.80;99.90;;;;;;5098310;28;20123;-58
2023/09/09 04:29:46;;;;;;;28.40;21.98;;;18.80;99.90;;;;;;5099647;28;20047;-58
2023/09/09 04:32:12;;;;;;;25.27;22.42;;;18.80;99.90;;;;;;5098995;28;20047;-57
2023/09/09 04:34:38;;;;;;;28.88;23.95;;;18.80;99.90;;;;;;5098738;28;20506;-57
2023/09/09 04:37:04;;;;;;;27.27;23.17;;;18.80;99.90;;;;;;5099307;28;20075;-57
2023/09/09 04:39:30;;;;;;;27.80;22.92;;;18.80;99.90;;;;;;5098188;28;20040;-57
2023/09/09 04:41:55;;;;;;;28.15;24.27;;;18.80;99.90;;;;;;5099131;28;20529;-57
2023/09/09 04:44:21;;;;;;;28.73;23.75;;;18.80;99.90;;;;;;5098103;28;20076;-58
2023/09/09 04:46:47;;;;;;;28.73;23.85;;;18.70;99.90;;;;;;5099479;28;20048;-57
2023/09/09 04:49:12;;;;;;;28.00;23.23;;;18.70;99.90;;;;;;5098257;28;20043;-57
2023/09/09 04:51:38;;;;;;;28.58;23.88;;;18.70;99.90;;;;;;5098945;28;20108;-58
2023/09/09 04:54:04;;;;;;;29.17;24.65;;;18.70;99.90;;;;;;5098344;28;20036;-57
2023/09/09 04:56:30;;;;;;;28.80;23.55;;;18.70;99.90;;;;;;5118494;28;20027;-58
2023/09/09 04:58:55;;;;;;;29.95;25.30;;;18.70;99.90;;;;;;5119934;28;20048;-57
2023/09/09 05:01:21;;;;;;;31.35;24.75;;;18.70;99.90;;;;;;5122678;28;20471;-57
2023/09/09 05:03:47;;;;;;;30.90;25.17;;;18.20;99.90;;;;;;5124033;28;20049;-57
2023/09/09 05:06:13;;;;;;;30.90;25.23;;;18.40;99.90;;;;;;5122882;28;20072;-58
2023/09/09 05:08:38;;;;;;;30.08;26.05;;;18.40;99.90;;;;;;5123310;28;20051;-57
2023/09/09 05:11:04;;;;;;;26.75;23.63;;;18.50;99.90;;;;;;5123428;28;20035;-57
2023/09/09 05:13:29;;;;;;;29.55;25.55;;;18.50;99.90;;;;;;5122105;28;20036;-58
2023/09/09 05:15:55;;;;;;;30.67;26.00;;;18.40;99.90;;;;;;5123230;28;20128;-58
2023/09/09 05:18:21;;;;;;;31.92;25.15;;;18.50;99.90;;;;;;5121881;27;20031;-58
2023/09/09 05:20:46;;;;;;;28.52;24.05;;;18.50;99.90;;;;;;5123842;28;20047;-58
2023/09/09 05:23:12;;;;;;;29.05;24.17;;;18.50;99.90;;;;;;5122354;28;20040;-57
2023/09/09 05:25:38;;;;;;;29.20;24.15;;;18.50;99.90;;;;;;5121232;28;20040;-58
2023/09/09 05:28:04;;;;;;;29.05;24.70;;;18.40;99.90;;;;;;5118849;27;20047;-57
2023/09/09 05:30:30;;;;;;;28.45;24.30;;;18.40;99.90;;;;;;5118365;28;20067;-58
2023/09/09 05:32:55;;;;;;;29.33;24.85;;;18.40;99.90;;;;;;5119290;28;20075;-58
2023/09/09 05:35:21;;;;;;;29.20;24.13;;;18.40;99.90;;;;;;5117795;28;20055;-57
2023/09/09 05:37:47;;;;;;;30.58;23.27;;;18.50;99.90;;;;;;5118952;28;20055;-57
2023/09/09 05:40:15;;;;;;;29.27;24.17;;;18.50;99.90;;;;;;5100278;28;20063;-58
2023/09/09 05:42:41;;;;;;;27.25;22.60;;;18.50;99.90;;;;;;5119029;28;20078;-57
2023/09/09 05:45:08;;;;;;;26.60;22.70;;;18.50;99.90;;;;;;5098955;28;20044;-57
2023/09/09 05:47:35;;;;;;;28.65;22.98;;;18.60;99.90;;;;;;5098077;28;20066;-57
2023/09/09 05:50:01;;;;;;;26.65;22.98;;;18.60;99.90;;;;;;5097852;28;20100;-57
2023/09/09 05:52:27;;;;;;;26.95;21.90;;;18.60;99.90;;;;;;5095805;28;20499;-56
2023/09/09 05:54:53;;;;;;;24.95;21.55;;;18.60;99.90;;;;;;5101398;28;20036;-58
2023/09/09 05:57:18;;;;;;;27.10;22.58;;;18.70;99.90;;;;;;5108868;28;20035;-57
2023/09/09 05:59:44;;;;;;;26.90;22.52;;;18.70;99.90;;;;;;5107740;28;20051;-58
2023/09/09 06:02:10;;;;;;;26.73;22.13;;;18.70;99.90;;;;;;5113341;28;20059;-57
2023/09/09 06:04:36;;;;;;;27.02;22.20;;;18.70;99.90;;;;;;5117995;28;20047;-57
2023/09/09 06:07:01;;;;;;;25.27;21.88;;;18.80;99.90;;;;;;5118377;28;20499;-57
2023/09/09 06:09:27;;;;;;;24.65;21.48;;;18.80;99.90;;;;;;5115886;28;20097;-58
2023/09/09 06:11:53;;;;;;;30.35;24.00;;;18.90;99.90;;;;;;5117389;28;20126;-58
2023/09/09 06:14:19;;;;;;;28.80;23.70;;;18.90;99.90;;;;;;5115204;28;20051;-57
2023/09/09 06:16:44;;;;;;;28.98;23.90;;;18.90;99.90;;;;;;5118953;28;20054;-57
2023/09/09 06:19:10;;;;;;;28.48;25.35;;;19.00;99.90;;;;;;5115653;28;20051;-57
2023/09/09 06:21:36;;;;;;;28.30;24.42;;;19.00;99.90;;;;;;5118072;28;20043;-58
2023/09/09 06:24:02;;;;;;;29.75;24.02;;;19.10;99.90;;;;;;5118077;28;20065;-57
2023/09/09 06:26:33;;;;;;;28.83;25.33;;;19.00;99.90;;;;;;5116932;28;20089;-58
2023/09/09 06:28:59;;;;;;;28.90;23.98;;;19.10;99.90;;;;;;5118121;28;20507;-57
2023/09/09 06:31:26;;;;;;;30.38;24.13;;;19.10;99.90;;;;;;5117129;27;20515;-57
2023/09/09 06:33:52;;;;;;;30.23;25.42;;;19.00;99.90;;;;;;5118225;28;20051;-57
2023/09/09 06:36:20;;;;;;;27.83;24.75;;;19.00;99.90;;;;;;5116782;28;20145;-58
2023/09/09 06:38:46;;;;;;;30.58;25.48;;;19.10;99.90;;;;;;5117216;28;20052;-57
2023/09/09 06:41:13;;;;;;;30.13;24.95;;;19.10;99.90;;;;;;5117461;28;20051;-57
2023/09/09 06:43:39;;;;;;;30.48;24.65;;;19.20;99.90;;;;;;5116596;27;20062;-57
2023/09/09 06:46:05;;;;;;;31.35;26.55;;;19.30;99.90;;;;;;5117873;28;20035;-58
2023/09/09 06:48:30;;;;;;;30.05;26.73;;;19.40;99.90;;;;;;5116189;28;20487;-58
2023/09/09 06:50:56;;;;;;;31.27;27.85;;;19.50;99.90;;;;;;5117879;28;20166;-57
2023/09/09 06:53:24;;;;;;;32.40;26.73;;;19.50;99.90;;;;;;5116840;28;20118;-57
2023/09/09 06:55:50;;;;;;;30.20;25.70;;;19.60;99.90;;;;;;5101511;28;20063;-58
2023/09/09 06:58:16;;;;;;;30.17;26.33;;;19.70;99.90;;;;;;5096199;28;20066;-57
2023/09/09 07:00:48;;;;;;;31.23;27.75;;;19.80;99.90;;;;;;5095788;28;20043;-58
2023/09/09 07:03:14;;;;;;;31.85;26.70;;;19.80;99.90;;;;;;5096580;28;20055;-57
2023/09/09 07:05:39;;;;;;;31.80;27.13;;;19.90;99.90;;;;;;5095582;28;20161;-58
2023/09/09 07:08:05;;;;;;;30.33;26.85;;;20.00;99.90;;;;;;5096108;28;20044;-57
2023/09/09 07:10:31;;;;;;;31.15;26.60;;;20.10;99.90;;;;;;5095586;28;20083;-58
2023/09/09 07:12:56;;;;;;;34.35;26.90;;;20.10;99.90;;;;;;5094999;28;20048;-59
2023/09/09 07:15:22;;;;;;;30.85;27.13;;;20.20;99.90;;;;;;5096065;28;20045;-57
2023/09/09 07:17:48;;;;;;;31.67;26.58;;;20.20;99.90;;;;;;5095721;28;20047;-57
2023/09/09 07:20:14;;;;;;;31.30;27.40;;;20.30;99.90;;;;;;5096705;28;20044;-58
2023/09/09 07:22:40;;;;;;;33.63;27.92;;;20.40;99.90;;;;;;5095369;28;20036;-58
2023/09/09 07:25:06;;;;;;;31.33;27.90;;;20.50;99.90;;;;;;5096600;28;20059;-58
2023/09/09 07:27:32;;;;;;;33.42;29.38;;;20.50;99.90;;;;;;5093667;28;20044;-57
2023/09/09 07:29:58;;;;;;;32.47;28.60;;;20.50;99.90;;;;;;5096265;28;20105;-58
2023/09/09 07:32:23;;;;;;;32.13;28.35;;;20.60;99.90;;;;;;5096110;28;20044;-57
2023/09/09 07:34:50;;;;;;;31.17;27.83;;;20.70;99.90;;;;;;5095429;28;20040;-58
2023/09/09 07:37:16;;;;;;;30.88;27.00;;;20.80;99.90;;;;;;5096420;28;20111;-57
2023/09/09 07:39:46;;;;;;;30.95;27.20;;;20.90;99.90;;;;;;5094492;28;20040;-57
2023/09/09 07:42:15;;;;;;;30.52;27.08;;;21.00;99.90;;;;;;5096284;28;20056;-58
2023/09/09 07:44:41;;;;;;;31.52;27.50;;;21.20;99.90;;;;;;5095394;28;20059;-57
2023/09/09 07:47:08;;;;;;;32.25;28.58;;;21.20;99.90;;;;;;5095494;28;20572;-58
2023/09/09 07:49:34;;;;;;;33.38;29.73;;;21.30;99.90;;;;;;5094844;28;20055;-57
2023/09/09 07:52:00;;;;;;;31.27;27.90;;;21.30;99.90;;;;;;5094669;28;20040;-57
2023/09/09 07:54:26;;;;;;;32.90;28.50;;;21.40;99.90;;;;;;5095367;28;20070;-58
2023/09/09 07:56:51;;;;;;;32.65;29.20;;;21.50;99.90;;;;;;5094582;28;20051;-57
2023/09/09 07:59:17;;;;;;;33.60;27.73;;;21.60;99.90;;;;;;5095991;28;20086;-58
2023/09/09 08:01:44;;;;;;;32.90;27.73;;;21.70;99.90;;;;;;5101218;28;20036;-57
2023/09/09 08:04:10;;;;;;;33.80;28.63;;;21.80;99.90;;;;;;5099138;28;20126;-58
2023/09/09 08:06:35;;;;;;;33.30;28.30;;;21.80;99.90;;;;;;5095257;28;20075;-57
2023/09/09 08:09:01;;;;;;;30.25;26.88;;;21.90;99.90;;;;;;5095021;28;20043;-58
2023/09/09 08:11:27;;;;;;;33.70;26.63;;;22.00;99.90;;;;;;5095769;28;20525;-57
2023/09/09 08:13:52;;;;;;;31.27;27.08;;;22.00;99.90;;;;;;5094220;28;20116;-57
2023/09/09 08:16:18;;;;;;;35.53;28.80;;;22.10;99.70;;;;;;5095710;28;20078;-57
2023/09/09 08:18:44;;;;;;;33.78;27.90;;;22.00;98.30;;;;;;5093744;28;20066;-57
2023/09/09 08:21:12;;;;;;;31.67;28.00;;;22.00;99.90;;;;;;5095097;28;20120;-57
2023/09/09 08:23:38;;;;;;;34.88;29.83;;;22.20;99.90;;;;;;5094276;28;20048;-58
2023/09/09 08:26:04;;;;;;;31.20;27.83;;;22.20;99.90;;;;;;5094243;28;20055;-58
2023/09/09 08:28:30;;;;;;;33.85;28.75;;;22.20;99.90;;;;;;5095499;28;20048;-57
2023/09/09 08:31:00;;;;;;;35.35;28.75;;;22.30;99.90;;;;;;5094267;28;20048;-58
2023/09/09 08:33:26;;;;;;;33.63;29.98;;;22.30;99.90;;;;;;5101737;28;20047;-58
2023/09/09 08:36:03;;;;;;;33.90;30.13;;;22.40;99.90;;;;;;5103441;28;20036;-58
2023/09/09 08:38:29;;;;;;;33.15;29.40;;;22.60;99.90;;;;;;5103070;28;20062;-57
2023/09/09 08:41:08;;;;;;;34.60;30.88;;;22.70;99.90;;;;;;5104624;28;20061;-57
2023/09/09 08:43:48;;;;;;;35.63;30.67;;;22.70;99.90;;;;;;5105411;28;20055;-58
2023/09/09 08:46:20;;;;;;;35.72;29.42;;;22.80;99.90;;;;;;5119530;28;20098;-57
2023/09/09 08:48:48;;;;;;;34.15;29.65;;;22.90;99.90;;;;;;5118288;28;20054;-58
2023/09/09 08:51:17;;;;;;;34.08;28.85;;;22.90;99.90;;;;;;5119476;28;20040;-58
2023/09/09 08:53:44;;;;;;;33.25;28.17;;;23.00;99.90;;;;;;5118614;28;20040;-57
2023/09/09 08:56:12;;;;;;;34.20;29.75;;;23.00;99.80;;;;;;5100467;28;20044;-57
2023/09/09 08:58:40;;;;;;;34.67;30.98;;;23.10;99.90;;;;;;5098727;28;20125;-57
2023/09/09 09:01:06;;;;;;;32.85;28.52;;;23.20;99.90;;;;;;5097892;28;20068;-57
2023/09/09 09:03:33;;;;;;;34.53;30.83;;;23.40;99.90;;;;;;5099270;28;20222;-58
2023/09/09 09:06:03;;;;;;;36.03;31.80;;;23.40;99.90;;;;;;5098003;28;20048;-57
2023/09/09 09:08:29;;;;;;;35.35;30.95;;;23.40;93.50;;;;;;5098587;28;20096;-58
2023/09/09 09:11:01;;;;;;;39.03;31.90;;;23.50;93.80;;;;;;5099092;28;20055;-58
2023/09/09 09:13:31;;;;;;;37.20;32.28;;;23.60;91.70;;;;;;5097810;28;20044;-58
2023/09/09 09:15:57;;;;;;;36.08;31.17;;;23.70;91.40;;;;;;5098930;28;20044;-56
2023/09/09 09:18:22;;;;;;;40.13;33.53;;;23.70;91.40;;;;;;5097415;28;20483;-58
2023/09/09 09:20:49;;;;;;;42.08;33.42;;;23.70;87.60;;;;;;5098683;28;20040;-57
2023/09/09 09:23:15;;;;;;;38.65;33.92;;;23.80;92.50;;;;;;5096639;28;20089;-57
2023/09/09 09:25:44;;;;;;;42.53;34.78;;;23.90;90.80;;;;;;5097319;28;20127;-58
2023/09/09 09:28:15;;;;;;;43.78;37.15;;;23.90;89.00;;;;;;5098583;28;20422;-57
2023/09/09 09:30:41;;;;;;;43.80;36.92;;;24.00;79.70;;;;;;5116880;28;20036;-58
2023/09/09 09:33:07;;;;;;;45.08;37.72;;;24.10;80.90;;;;;;5117682;28;20048;-58
2023/09/09 09:35:36;;;;;;;43.05;35.40;;;24.10;74.80;;;;;;5118139;28;20032;-58
2023/09/09 09:38:09;;;;;;;44.63;37.00;;;24.10;54.10;;;;;;5119561;28;20071;-58
2023/09/09 09:40:35;;;;;;;42.83;35.78;;;24.10;52.50;;;;;;5118103;28;20050;-58
2023/09/09 09:43:01;;;;;;;41.78;35.92;;;24.20;55.30;;;;;;5118396;28;20047;-57
2023/09/09 09:45:29;;;;;;;42.15;35.90;;;24.30;53.60;;;;;;5118725;28;20048;-57
2023/09/09 09:47:57;;;;;;;41.65;34.50;;;24.40;47.60;;;;;;5121488;28;20051;-58
2023/09/09 09:50:30;;;;;;;38.38;32.38;;;24.40;41.70;;;;;;5122598;28;20069;-58
2023/09/09 09:53:04;;;;;;;37.22;31.00;;;24.60;45.60;;;;;;5121277;28;20082;-58
2023/09/09 09:55:32;;;;;;;37.15;30.35;;;24.70;28.70;;;;;;5109216;28;20052;-57
2023/09/09 09:58:04;;;;;;;32.90;28.75;;;24.60;18.60;;;;;;5101402;28;20055;-58
2023/09/09 10:00:30;;;;;;;33.15;28.15;;;24.60;15.30;;;;;;5100824;28;20119;-58
2023/09/09 10:03:01;;;;;;;34.40;27.35;;;24.70;11.50;;;;;;5101566;28;20129;-58
2023/09/09 10:05:28;;;;;;;26.63;23.10;;;24.60;1.00;;;;;;5100572;28;20032;-58
2023/09/09 10:08:06;;;;;;;28.52;23.15;;;24.70;1.30;;;;;;5102290;28;20132;-58
2023/09/09 10:10:35;;;;;;;34.20;26.90;;;24.70;1.00;;;;;;5101144;28;20070;-58
2023/09/09 10:13:19;;;;;;;31.15;26.17;;;24.70;1.40;;;;;;5101553;28;20035;-58
2023/09/09 10:15:47;;;;;;;25.73;22.67;;;24.80;8.30;;;;;;5101692;28;20044;-57
2023/09/09 10:18:13;;;;;;;32.03;20.95;;;24.90;1.00;;;;;;5100263;28;20087;-58
2023/09/09 10:20:41;;;;;;;29.10;23.27;;;25.00;1.00;;;;;;5102152;28;20035;-57
2023/09/09 10:23:07;;;;;;;25.58;21.35;;;25.00;3.60;;;;;;5100860;28;20051;-57
2023/09/09 10:25:34;;;;;;;28.80;22.25;;;25.00;1.00;;;;;;5101788;28;20074;-58
2023/09/09 10:28:01;;;;;;;30.75;23.98;;;25.00;1.00;;;;;;5101227;28;20039;-58
2023/09/09 10:30:28;;;;;;;33.97;29.10;;;25.10;1.00;;;;;;5100381;28;20503;-58
2023/09/09 10:32:56;;;;;;;36.50;30.67;;;25.10;1.40;;;;;;5101619;28;20044;-58
2023/09/09 10:35:22;;;;;;;35.72;29.13;;;25.20;4.80;;;;;;5100507;28;20044;-58
2023/09/09 10:37:50;;;;;;;34.72;30.42;;;25.20;1.70;;;;;;5101649;28;20047;-58
2023/09/09 10:40:17;;;;;;;35.50;30.70;;;25.20;1.40;;;;;;5100579;28;20040;-58
2023/09/09 10:42:44;;;;;;;37.75;30.80;;;25.40;3.80;;;;;;5101258;28;20105;-58
2023/09/09 10:45:31;;;;;;;37.03;29.27;;;25.30;1.00;;;;;;5101054;28;20040;-58
2023/09/09 10:48:04;;;;;;;29.23;24.00;;;25.60;1.00;;;;;;5100149;28;20052;-58
2023/09/09 10:50:47;;;;;;;29.73;22.60;;;25.70;1.00;;;;;;5106267;28;20119;-58
2023/09/09 10:53:22;;;;;;;30.17;24.52;;;25.60;1.00;;;;;;5100438;28;20468;-57
2023/09/09 10:55:50;;;;;;;28.10;22.52;;;25.60;1.00;;;;;;5115751;28;20039;-58
2023/09/09 10:58:18;;;;;;;27.98;21.65;;;25.60;1.00;;;;;;5120542;27;20437;-57
2023/09/09 11:00:48;;;;;;;28.70;22.85;;;25.60;1.00;;;;;;5120329;28;20044;-58
2023/09/09 11:03:16;;;;;;;25.60;21.17;;;25.70;1.00;;;;;;5121347;28;20035;-56
2023/09/09 11:06:07;;;;;;;27.90;21.30;;;25.80;1.00;;;;;;5119946;28;20044;-58
2023/09/09 11:08:41;;;;;;;25.80;20.58;;;25.90;1.00;;;;;;5120994;28;20073;-58
2023/09/09 11:11:14;;;;;;;25.77;19.65;;;25.90;1.00;;;;;;5113923;28;20099;-58
2023/09/09 11:13:50;;;;;;;22.27;18.10;;;25.90;1.00;;;;;;5108198;28;20048;-58
2023/09/09 11:16:25;;;;;;;19.88;15.55;;;25.90;1.00;;;;;;5121369;28;20051;-58
2023/09/09 11:18:52;;;;;;;20.15;16.90;;;26.10;1.00;;;;;;5119937;28;20436;-58
2023/09/09 11:21:22;;;;;;;18.25;14.65;;;26.20;1.00;;;;;;5119534;28;20085;-57
2023/09/09 11:23:52;;;;;;;22.10;18.15;;;26.20;1.00;;;;;;5120603;28;20056;-58
2023/09/09 11:26:18;;;;;;;21.60;18.48;;;25.90;1.00;;;;;;5120176;28;20061;-58
2023/09/09 11:28:46;;;;;;;21.67;18.30;;;26.10;1.00;;;;;;5120734;27;20039;-58
2023/09/09 11:31:16;;;;;;;21.38;18.30;;;26.20;1.00;;;;;;5119868;28;20039;-58
2023/09/09 11:33:41;;;;;;;19.70;15.38;;;26.00;1.00;;;;;;5120853;28;20095;-57
2023/09/09 11:36:08;;;;;;;19.95;16.10;;;26.20;1.00;;;;;;5120051;28;20063;-56
2023/09/09 11:38:40;;;;;;;21.23;16.92;;;26.20;1.00;;;;;;5120435;28;20070;-57
2023/09/09 11:41:06;;;;;;;18.75;15.55;;;26.20;1.00;;;;;;5114047;28;20168;-58
2023/09/09 11:43:32;;;;;;;16.63;12.63;;;26.40;1.00;;;;;;5115180;28;20047;-57
2023/09/09 11:45:58;;;;;;;17.83;13.60;;;26.50;1.00;;;;;;5120724;28;20035;-58
2023/09/09 11:48:24;;;;;;;16.40;12.80;;;26.40;1.00;;;;;;5105570;28;20077;-58
2023/09/09 11:50:50;;;;;;;16.55;12.50;;;26.50;1.00;;;;;;5100116;28;20100;-58
2023/09/09 11:53:19;;;;;;;16.55;12.48;;;26.60;1.00;;;;;;5099253;28;20505;-58
2023/09/09 11:55:44;;;;;;;15.52;12.75;;;26.50;1.00;;;;;;5113811;28;20040;-58
2023/09/09 11:58:10;;;;;;;15.32;11.48;;;26.40;1.00;;;;;;5119595;28;20136;-58
2023/09/09 12:00:36;;;;;;;17.27;12.65;;;26.60;1.00;;;;;;5117291;28;20043;-57
2023/09/09 12:03:02;;;;;;;17.23;11.95;;;26.40;1.00;;;;;;5119350;28;20054;-58
2023/09/09 12:05:32;;;;;;;14.73;11.80;;;26.60;1.00;;;;;;5118084;28;20050;-57
2023/09/09 12:08:03;;;;;;;15.40;10.55;;;26.60;1.00;;;;;;5119969;28;20043;-57
2023/09/09 12:10:33;;;;;;;15.98;12.98;;;26.60;1.00;;;;;;5118646;28;20122;-58
2023/09/09 12:12:59;;;;;;;17.10;12.57;;;26.50;1.00;;;;;;5119710;28;20075;-57
2023/09/09 12:15:26;;;;;;;13.15;10.73;;;26.50;1.00;;;;;;5118112;28;20104;-57
2023/09/09 12:17:52;;;;;;;18.42;11.20;;;26.50;1.00;;;;;;5119316;28;20410;-58
2023/09/09 12:20:18;;;;;;;14.48;10.40;;;26.60;1.00;;;;;;5115429;28;20067;-58
2023/09/09 12:22:52;;;;;;;14.45;11.20;;;26.80;1.00;;;;;;5113552;28;20520;-57
2023/09/09 12:25:34;;;;;;;13.30;10.45;;;26.80;1.00;;;;;;5116334;28;20051;-58
2023/09/09 12:28:01;;;;;;;14.57;10.60;;;26.80;1.00;;;;;;5114670;28;20059;-58